x

Stonewall Bank - 20nm West Of Newport, Or (46050) Wave Buoy

12:50pm - Tue 25th Apr 2017 All times are PDT. -7 hours from GMT.

  • Sig Wave height 7.9ft
  • Swell Direction
  • Peak Period 10s
  • Average Period 6s
  • Wind
    27mph, 34mph gusts
  • Sea Temp 52°f
  • Sea Pressure 1010.5mb
  • Stonewall Bank - 20nm West Of Newport, Or
  • Stonewall Bank - 20nm West Of Newport, Or

More Historic Weather Station data

Upgrade to MSW Pro to gain access to the past 30 days of data for over 8000 Wavebouys and Weather Stations around the globe.

Join Pro

Comparision Forecast

View Surf forecast
   
Tue 04/25 12:50pm 8ft 10s 6s 27 34 mph 1010.5mb 52f
11:50am 8ft 10s 6s 25 29 mph 1011.7mb 52f
10:50am 7ft 9s 6s 27 31 mph 1011.4mb 52f
9:50am 7ft 8s 6s 22 27 mph 1012.1mb 52f
8:50am 7ft 10s 6s 22 27 mph 1012.2mb 52f
7:50am 7.5ft 10s 7s 18 22 mph 1013.6mb 52f
6:50am 7.5ft 10s 7s 16 20 mph 1014.5mb 52f
5:50am 7ft 10s 7s 16 18 mph 1014.4mb 52f
4:50am 7ft 10s 7s 16 18 mph 1014.2mb 52f
3:50am 8ft 10s 7s 11 13 mph 1014.8mb 52f
2:50am 8ft 11s 7s 11 13 mph 1015.5mb 52f
1:50am 8ft 9s 7s 11 16 mph 1015.5mb 52f
12:50am 8.5ft 9s 7s 11 13 mph 1015.6mb 52f
Mon 04/24 11:50pm 7.5ft 10s 7s 11 18 mph 1015.7mb 52f
10:50pm 9ft 10s 7s 16 18 mph 1015.4mb 52f
9:50pm 9ft 11s 7s 9 13 mph 1015.5mb 52f
8:50pm 9.5ft 10s 7s 11 13 mph 1014.6mb 52f
7:50pm 10ft 11s 7s 11 16 mph 1013.9mb 52f
6:50pm 10.5ft 10s 7s 13 18 mph 1013.4mb 52f
5:50pm 10ft 11s 7s 18 22 mph 1012.9mb 52f
4:50pm 10ft 11s 7s 18 22 mph 1012.4mb 52f
3:50pm 9ft 11s 7s 18 20 mph 1011.5mb 52f
2:50pm 11ft 11s 8s 20 25 mph 1010.8mb 52f
1:50pm 9.5ft 10s 7s 20 22 mph 1009.2mb 52f
12:50pm 11ft 11s 7s 22 27 mph 1007.1mb 52f
11:50am 11ft 11s 7s 18 25 mph 1005.8mb 52f
10:50am 10.5ft 11s 7s 18 25 mph 1004.9mb 52f
9:50am 10ft 8s 7s 20 25 mph 1004.1mb 52f
8:50am 9.5ft 8s 7s 20 25 mph 1003.7mb 51f
7:50am 10ft 8s 7s 18 27 mph 1003mb 51f
6:50am 11ft 8s 7s 20 22 mph 1002.5mb 51f
4:50am 11.5ft 8s 7s 22 29 mph 1002.5mb 51f
3:50am 12.5ft 7s 7s 29 36 mph 1002.6mb 51f
2:50am 10ft 7s 6s 27 31 mph 1003.9mb 52f
1:50am 10ft 7s 6s 29 36 mph 1005.2mb 52f
12:50am 9ft 13s 6s 25 34 mph 1006.6mb 52f
Sun 04/23 11:50pm 10ft 11s 7s 27 34 mph 1007.5mb 52f
10:50pm 9.5ft 11s 7s 25 29 mph 1008.7mb 52f
9:50pm 9.5ft 11s 7s 20 25 mph 1009.9mb 52f
8:50pm 10ft 11s 7s 18 20 mph 1010.4mb 52f
7:50pm 10ft 11s 7s 20 22 mph 1010.9mb 52f
6:50pm 9ft 11s 7s 20 27 mph 1011.4mb 52f
5:50pm 9ft 12s 7s 20 25 mph 1012mb 52f
4:50pm 9ft 11s 8s 20 22 mph 1012.7mb 52f
3:50pm 9ft 12s 7s 20 22 mph 1013.1mb 52f
2:50pm 7.5ft 14s 6s 20 25 mph 1013.2mb 51f
1:50pm 8.5ft 11s 7s 20 25 mph 1013.4mb 51f
12:50pm 8ft 12s 7s 18 22 mph 1013.1mb 51f
11:50am 8ft 14s 7s 18 20 mph 1012.9mb 51f
10:50am 9ft 13s 7s 16 20 mph 1013mb 51f
9:50am 8ft 12s 7s 18 22 mph 1012.4mb 51f
8:50am 8.5ft 13s 7s 16 22 mph 1012.3mb 51f
7:50am 8.5ft 11s 8s 18 20 mph 1012.2mb 52f
6:50am 9.5ft 13s 8s 20 25 mph 1012.3mb 52f
5:50am 9.5ft 12s 8s 16 18 mph 1012.4mb 52f
4:50am 9ft 13s 8s 18 22 mph 1012.5mb 52f
3:50am 9ft 13s 8s 16 20 mph 1013.4mb 52f
2:50am 9.5ft 13s 8s 16 18 mph 1013.7mb 51f
1:50am 9.5ft 13s 8s 16 18 mph 1014.1mb 52f
12:50am 9ft 14s 8s 13 16 mph 1014.1mb 51f
Sat 04/22 11:50pm 9ft 13s 8s 13 16 mph 1014.3mb 52f
10:50pm 9ft 11s 8s 11 13 mph 1014.7mb 52f
9:50pm 9ft 11s 8s 11 13 mph 1015mb 52f
8:50pm 9ft 15s 8s 11 16 mph 1015mb 52f
7:50pm 9ft 13s 7s 11 16 mph 1014.9mb 52f
6:50pm 9ft 11s 7s 13 16 mph 1014.9mb 52f
4:50pm 9.5ft 11s 7s 16 20 mph 1014.9mb 52f
3:50pm 10ft 8s 7s 18 22 mph 1014.8mb 52f
2:50pm 10ft 11s 7s 20 25 mph 1014.6mb 52f
1:50pm 10.5ft 8s 7s 25 29 mph 1013.8mb 52f
12:50pm 10ft 9s 7s 20 25 mph 1012.8mb 52f
11:50am 10ft 8s 6s 27 31 mph 1011.5mb 52f
10:50am 12.5ft 7s 7s 27 34 mph 1010.3mb 52f
9:50am 10ft 7s 6s 29 38 mph 1008.7mb 52f
8:50am 8ft 6s 5s 34 40 mph 1007.4mb 52f
7:50am 5ft 4s 5s 36 45 mph 1007mb 52f
6:50am 4ft 13s 5s 25 29 mph 1007.5mb 52f
4:50am 3.5ft 19s 6s 18 22 mph 1008.4mb 52f
3:50am 3.5ft 19s 8s 16 18 mph 1008.3mb 53f
2:50am 3ft 19s 8s 11 13 mph 1008mb 52f
1:50am 3.5ft 9s 8s 9
mph
1008.4mb 52f
12:50am 3.5ft 10s 8s 9
mph
1009.4mb 53f
Fri 04/21 11:50pm 3.5ft 8s 8s 11
mph
1010.4mb 53f
10:50pm 3.5ft 10s 7s 11
mph
1011.3mb 53f
9:50pm 4ft 9s 8s 4
mph
1011.8mb 53f